Terminal Aerodrome Forecast
Issued by NWS

Home | Current Version | Previous Version | Graphics & Text | Print | Product List | Glossary On
Versions: 1 2 3 4 5 6 7 8 9 10 11 12 13 14 15 16 17 18 19 20 21 22 23 24 25 26 27 28 29
000
FTUS43 KLOT 150159 AAA
TAFDPA
TAF AMD
KDPA 150159Z 1502/1524 16010KT 6SM -SHRA BR VCTS SCT015 BKN040CB
      TEMPO 1502/1503 3SM RA BR BKN015
     FM150400 22012G20KT 4SM -SHRA BR VCTS SCT012 BKN050CB
      TEMPO 1505/1509 2SM TSRA OVC012CB
     FM151100 29020G35KT P6SM VCSH OVC015
     FM151600 32017G26KT P6SM BKN025
     FM152000 32014G22KT P6SM SCT030=

USA.gov is the U.S. government's official web portal to all federal, state and local government web resources and services.